This is the latest recevied weather packets stored in our database for station/object KC3ELT-10. If no packets are shown the sender has not sent any weather packets the latest 10 day(s).
| Time | Temp. | Humidity | Pressure | Rain* | Wind** | Luminosity | Snow |
|---|---|---|---|---|---|---|---|
| 1777923479 | 20° C | 39% | 1004 hPa | 0 mm | 1.34 m/s, 187° | - | - |
| 1777923179 | 20° C | 40% | 1004 hPa | 0 mm | 4.02 m/s, 156° | - | - |
| 1777922879 | 20° C | 39% | 1004.2 hPa | 0 mm | 2.24 m/s, 251° | - | - |
| 1777922579 | 20° C | 41% | 1004.2 hPa | 0 mm | 3.13 m/s, 174° | - | - |
| 1777922279 | 20° C | 39% | 1004.2 hPa | 0 mm | 1.34 m/s, 267° | - | - |
| 1777921979 | 20° C | 38% | 1004.4 hPa | 0 mm | 0.89 m/s, 200° | - | - |
| 1777921679 | 19.44° C | 39% | 1004.4 hPa | 0 mm | 4.47 m/s, 261° | - | - |
| 1777921379 | 20° C | 38% | 1004.4 hPa | 0 mm | 0.89 m/s, 282° | - | - |
| 1777921079 | 19.44° C | 38% | 1004.5 hPa | 0 mm | 1.79 m/s, 231° | - | - |
| 1777920779 | 19.44° C | 40% | 1004.5 hPa | 0 mm | 2.68 m/s, 303° | - | - |
| 1777920479 | 19.44° C | 39% | 1004.5 hPa | 0 mm | 2.24 m/s, 314° | - | - |
| 1777920179 | 19.44° C | 38% | 1004.6 hPa | 0 mm | 0.89 m/s, 207° | - | - |
| 1777919879 | 19.44° C | 38% | 1004.6 hPa | 0 mm | 0.89 m/s, 200° | - | - |
| 1777919579 | 20° C | 41% | 1004.6 hPa | 0 mm | 4.02 m/s, 252° | - | - |
| 1777919279 | 19.44° C | 37% | 1005 hPa | 0 mm | 0.45 m/s, 190° | - | - |
| 1777918979 | 19.44° C | 39% | 1005 hPa | 0 mm | 2.24 m/s, 312° | - | - |
| 1777918679 | 18.89° C | 38% | 1005 hPa | 0 mm | 1.79 m/s, 259° | - | - |
| 1777918379 | 19.44° C | 39% | 1005.1 hPa | 0 mm | 2.24 m/s, 239° | - | - |
| 1777918079 | 19.44° C | 38% | 1005.1 hPa | 0 mm | 0.89 m/s, 278° | - | - |
| 1777917779 | 18.89° C | 38% | 1005.1 hPa | 0 mm | 1.79 m/s, 266° | - | - |
| 1777917479 | 18.89° C | 39% | 1005.5 hPa | 0 mm | 1.34 m/s, 226° | - | - |
| 1777917179 | 18.89° C | 39% | 1005.5 hPa | 0 mm | 2.68 m/s, 255° | - | - |
| 1777916879 | 18.89° C | 40% | 1005.5 hPa | 0 mm | 0.89 m/s, 340° | - | - |
| 1777916579 | 18.33° C | 39% | 1005.6 hPa | 0 mm | 2.68 m/s, 267° | - | - |
| 1777916279 | 18.33° C | 39% | 1005.6 hPa | 0 mm | 0.45 m/s, 292° | - | - |
* Rain latest hour (hover to see other rain measurements)
** Current wind speed in m/s (hover to see current wind gust speed)